Data for 02/10/2006

Time Sea-Level Adjusted Pressure Absolute Pressure Temperature Relative Humidity Dew Point   
(mb) (inHg) (mb) (inHg) (C) (F) (%) (C) (F)
00:05 1032 30.47 861 25.43 -8.6 16.5 70 -13.1 8.4
00:10 1032 30.47 861 25.43 -8.6 16.4 71 -13.1 8.5
00:15 1032 30.47 861 25.43 -8.8 16.2 71 -13.2 8.2
00:20 1032 30.47 861 25.43 -8.7 16.3 71 -13.1 8.4
00:25 1032 30.47 861 25.43 -8.4 16.9 69 -13.1 8.5
00:30 1032 30.47 861 25.43 -7.9 17.9 67 -12.9 8.8
00:35 1032 30.47 861 25.43 -7.6 18.3 67 -12.8 9
00:40 1032 30.47 861 25.43 -7.6 18.3 66 -12.8 8.9
00:45 1032 30.47 861 25.43 -7.8 18 67 -12.9 8.8
00:50 1032 30.47 861 25.43 -7.9 17.9 67 -12.9 8.7
00:55 1032 30.47 861 25.43 -7.9 17.9 67 -13 8.6
01:00 1032 30.47 861 25.43 -7.9 17.8 67 -13 8.6
01:05 1032 30.47 861 25.43 -8 17.6 67 -13.1 8.5
01:10 1032 30.47 861 25.43 -8.3 17.1 68 -13.1 8.4
01:15 1032 30.47 861 25.43 -8.5 16.6 69 -13.2 8.2
01:20 1032 30.47 862 25.45 -8.8 16.2 70 -13.3 8
01:25 1032 30.47 862 25.45 -9.2 15.4 70 -13.7 7.4
01:30 1032 30.47 861 25.43 -9.3 15.3 71 -13.7 7.3
01:35 1032 30.47 862 25.45 -9.3 15.3 69 -13.9 7
01:40 1032 30.47 862 25.45 -9.4 15.1 70 -14 6.9
01:45 1032 30.47 861 25.43 -9.5 14.8 71 -13.9 6.9
01:50 1032 30.47 861 25.43 -9.4 15 70 -14 6.8
01:55 1032 30.47 861 25.43 -9.3 15.2 69 -14 6.8
02:00 1032 30.47 861 25.43 -9.4 15.2 70 -13.9 6.9
02:05 1032 30.47 862 25.45 -9.4 15.2 69 -14 6.8
02:10 1032 30.47 862 25.45 -9.4 15.1 69 -14.1 6.7
02:15 1032 30.47 862 25.45 -9.5 14.9 69 -14.1 6.6
02:20 1033 30.5 862 25.45 -9.4 15 69 -14.1 6.7
02:25 1033 30.5 862 25.45 -9.7 14.6 70 -14.1 6.7
02:30 1033 30.5 862 25.45 -9.3 15.2 68 -14.2 6.5
02:35 1033 30.5 862 25.45 -9.1 15.6 67 -14.1 6.6
02:40 1033 30.5 862 25.45 -9.3 15.3 68 -14.2 6.4
02:45 1033 30.5 862 25.45 -9.5 15 68 -14.2 6.4
02:50 1033 30.5 862 25.45 -9.7 14.5 71 -14 6.7
02:55 1033 30.5 862 25.45 -9.7 14.6 72 -13.8 7.1
03:00 1033 30.5 862 25.45 -9.3 15.2 69 -14 6.9
03:05 1033 30.5 862 25.45 -9.3 15.4 68 -14.1 6.6
03:10 1033 30.5 862 25.45 -9.2 15.4 68 -14.1 6.7
03:15 1033 30.5 862 25.45 -9.1 15.5 67 -14.2 6.5
03:20 1033 30.5 862 25.45 -9 15.9 67 -14 6.7
03:25 1033 30.5 862 25.45 -8.8 16.1 66 -14 6.7
03:30 1033 30.5 862 25.45 -8.7 16.3 66 -13.9 6.9
03:35 1033 30.5 862 25.45 -8.5 16.7 66 -13.8 7.2
03:40 1033 30.5 862 25.45 -8.3 17.1 65 -13.7 7.3
03:45 1033 30.5 862 25.45 -8.1 17.4 65 -13.6 7.5
03:50 1033 30.5 862 25.45 -8 17.5 64 -13.6 7.5
03:55 1033 30.5 862 25.45 -8.1 17.5 65 -13.5 7.6
04:00 1033 30.5 862 25.45 -8.1 17.4 66 -13.5 7.8
04:05 1033 30.5 862 25.45 -8.2 17.2 66 -13.4 7.8
04:10 1033 30.5 862 25.45 -8.2 17.3 66 -13.4 7.9
04:15 1033 30.5 862 25.45 -8.2 17.3 66 -13.4 7.9
04:20 1032 30.47 862 25.45 -8.2 17.2 66 -13.6 7.5
04:25 1033 30.5 862 25.45 -8.4 16.9 66 -13.6 7.5
04:30 1033 30.5 862 25.45 -8.5 16.6 67 -13.7 7.4
04:35 1033 30.5 862 25.45 -8.6 16.5 67 -13.7 7.3
04:40 1033 30.5 862 25.45 -8.6 16.5 67 -13.7 7.3
04:45 1033 30.5 862 25.45 -8.6 16.5 67 -13.7 7.4
04:50 1033 30.5 862 25.45 -8.5 16.6 67 -13.6 7.5
04:55 1033 30.5 862 25.45 -8.5 16.6 67 -13.6 7.5
05:00 1033 30.5 862 25.45 -8.8 16.1 67 -13.8 7.1
05:05 1033 30.5 862 25.45 -9.1 15.6 69 -13.9 7
05:10 1033 30.5 862 25.45 -9.3 15.3 69 -13.9 6.9
05:15 1033 30.5 862 25.45 -9.4 15.1 70 -14 6.9
05:20 1033 30.5 862 25.45 -9.7 14.5 71 -14.1 6.6
05:25 1033 30.5 862 25.45 -10.1 13.8 72 -14.3 6.3
05:30 1033 30.5 862 25.45 -10 13.9 72 -14.2 6.5
05:35 1033 30.5 863 25.48 -9.8 14.3 71 -14.1 6.5
05:40 1033 30.5 863 25.48 -9.8 14.3 72 -14 6.8
05:45 1034 30.53 863 25.48 -9.7 14.6 72 -13.9 6.9
05:50 1034 30.53 863 25.48 -9.6 14.7 71 -14 6.9
05:55 1034 30.53 863 25.48 -9.6 14.8 70 -14 6.8
06:00 1034 30.53 863 25.48 -9.5 14.9 70 -13.9 6.9
06:05 1034 30.53 863 25.48 -9.5 15 70 -13.9 7
06:10 1034 30.53 863 25.48 -9.4 15 70 -13.9 6.9
06:15 1034 30.53 863 25.48 -9.3 15.3 70 -13.7 7.3
06:20 1034 30.53 863 25.48 -9.1 15.6 69 -13.8 7.2
06:25 1034 30.53 863 25.48 -9.2 15.5 69 -13.8 7.2
06:30 1034 30.53 863 25.48 -9.2 15.4 69 -13.8 7.1
06:35 1034 30.53 863 25.48 -9.1 15.6 69 -13.8 7.2
06:40 1034 30.53 863 25.48 -9 15.7 69 -13.7 7.3
06:45 1034 30.53 863 25.48 -8.9 15.9 68 -13.8 7.1
06:50 1034 30.53 863 25.48 -9 15.8 69 -13.8 7.2
06:55 1034 30.53 863 25.48 -9 15.7 69 -13.8 7.2
07:00 1034 30.53 863 25.48 -9 15.9 69 -13.7 7.4
07:05 1034 30.53 863 25.48 -9 15.8 69 -13.7 7.4
07:10 1034 30.53 863 25.48 -9 15.7 69 -13.7 7.3
07:15 1034 30.53 863 25.48 -9.2 15.4 69 -13.9 7
07:20 1034 30.53 863 25.48 -9.6 14.7 69 -14.2 6.4
07:25 1034 30.53 863 25.48 -9.6 14.7 69 -14.3 6.2
07:30 1034 30.53 863 25.48 -9.5 14.8 69 -14.3 6.3
07:35 1034 30.53 863 25.48 -9.4 15.1 69 -14.1 6.6
07:40 1034 30.53 863 25.48 -9.3 15.2 68 -14.1 6.6
07:45 1034 30.53 863 25.48 -9.3 15.3 69 -14 6.8
07:50 1034 30.53 863 25.48 -9.3 15.3 69 -14 6.8
07:55 1034 30.53 864 25.51 -9.3 15.3 69 -14 6.8
08:00 1034 30.53 864 25.51 -9.2 15.4 67 -14.2 6.5
08:05 1035 30.56 864 25.51 -10 14.1 69 -14.6 5.8
08:10 1035 30.56 864 25.51 -10.5 13.1 71 -14.8 5.3
08:15 1035 30.56 864 25.51 -10.4 13.2 70 -14.8 5.3
08:20 1035 30.56 864 25.51 -10.1 13.8 70 -14.7 5.6
08:25 1035 30.56 864 25.51 -9.3 15.3 66 -14.5 5.9
08:30 1035 30.56 864 25.51 -8.1 17.3 62 -14.3 6.3
08:35 1035 30.56 864 25.51 -7.6 18.3 60 -14.1 6.6
08:40 1035 30.56 864 25.51 -7.5 18.5 60 -14 6.8
08:45 1035 30.56 864 25.51 -7.8 17.9 60 -14.3 6.3
08:50 1035 30.56 864 25.51 -7.4 18.7 58 -14.2 6.4
08:55 1035 30.56 864 25.51 -7.5 18.4 59 -14.1 6.5
09:00 1035 30.56 864 25.51 -7.3 18.8 58 -14.3 6.3
09:05 1035 30.56 864 25.51 -7.5 18.5 58 -14.4 6.1
09:10 1035 30.56 864 25.51 -7.2 19 57 -14.3 6.3
09:15 1035 30.56 864 25.51 -6.6 20.1 55 -14.2 6.4
09:20 1035 30.56 864 25.51 -6.3 20.6 54 -14.1 6.7
09:25 1035 30.56 864 25.51 -6.6 20.1 55 -14.1 6.6
09:30 1035 30.56 864 25.51 -6.4 20.5 54 -14.2 6.5
09:35 1035 30.56 864 25.51 -6.2 20.8 54 -14 6.8
09:40 1035 30.56 864 25.51 -6.5 20.3 54 -14.3 6.3
09:45 1035 30.56 864 25.51 -6.7 20 55 -14.2 6.4
09:50 1035 30.56 864 25.51 -6.8 19.8 53 -14.8 5.4
09:55 1035 30.56 864 25.51 -6 21.2 52 -14.3 6.2
10:00 1035 30.56 864 25.51 -6.5 20.3 52 -14.7 5.5
10:05 1035 30.56 864 25.51 -6 21.2 50 -14.8 5.3
10:10 1035 30.56 864 25.51 -5.5 22.1 48 -14.8 5.3
10:15 1035 30.56 864 25.51 -5.7 21.7 49 -14.8 5.4
10:20 1035 30.56 864 25.51 -5.8 21.6 50 -14.5 5.9
10:25 1035 30.56 864 25.51 -5.7 21.7 50 -14.5 5.8
10:30 1035 30.56 864 25.51 -5.4 22.2 48 -14.7 5.6
10:35 1035 30.56 864 25.51 -5 23.1 46 -15 5.1
10:40 1035 30.56 864 25.51 -5.5 22.1 48 -14.8 5.3
10:45 1035 30.56 864 25.51 -5.7 21.7 48 -15.1 4.8
10:50 1035 30.56 864 25.51 -5.4 22.3 47 -15.1 4.8
10:55 1035 30.56 864 25.51 -5.5 22 47 -15.2 4.6
11:00 1035 30.56 864 25.51 -4.9 23.2 44 -15.4 4.2
11:05 1035 30.56 864 25.51 -4.8 23.4 45 -15.1 4.9
11:10 1035 30.56 864 25.51 -4.6 23.7 46 -14.6 5.7
11:15 1035 30.56 864 25.51 -4.9 23.1 45 -15.1 4.9
11:20 1035 30.56 864 25.51 -4.7 23.6 46 -14.7 5.5
11:25 1035 30.56 864 25.51 -4.6 23.7 45 -14.9 5.1
11:30 1035 30.56 864 25.51 -4.3 24.3 44 -14.7 5.5
11:35 1035 30.56 864 25.51 -3.9 24.9 42 -15.1 4.8
11:40 1035 30.56 864 25.51 -3.7 25.3 42 -14.8 5.3
11:45 1035 30.56 864 25.51 -3.8 25.1 43 -14.7 5.5
11:50 1035 30.56 864 25.51 -3.7 25.3 43 -14.7 5.5
11:55 1035 30.56 864 25.51 -3.7 25.3 42 -14.8 5.3
12:00 1035 30.56 864 25.51 -3.9 24.9 45 -14.3 6.2
12:05 1035 30.56 864 25.51 -4.3 24.3 49 -13.5 7.8
12:10 1035 30.56 864 25.51 -4.4 24.1 49 -13.6 7.5
12:15 1035 30.56 864 25.51 -4 24.8 48 -13.4 8
12:20 1035 30.56 864 25.51 -4.8 23.3 47 -14.6 5.8
12:25 1035 30.56 864 25.51 -5.2 22.7 51 -13.8 7.1
12:30 1035 30.56 864 25.51 -5.1 22.9 45 -15.3 4.4
12:35 1035 30.56 864 25.51 -5.3 22.4 48 -14.6 5.7
12:40 1035 30.56 864 25.51 -5.7 21.7 51 -14.4 6.1
12:45 1035 30.56 864 25.51 -5.6 21.9 52 -14 6.7
12:50 1035 30.56 864 25.51 -5.3 22.5 50 -14.1 6.5
12:55 1035 30.56 864 25.51 -5.6 21.8 56 -13.1 8.5
13:00 1035 30.56 864 25.51 -5.4 22.3 50 -14.2 6.4
13:05 1034 30.53 864 25.51 -5.2 22.6 52 -13.7 7.3
13:10 1035 30.56 864 25.51 -5.4 22.2 48 -14.9 5.2
13:15 1034 30.53 864 25.51 -4.5 23.8 44 -15.1 4.7
13:20 1034 30.53 864 25.51 -4 24.8 42 -15.2 4.6
13:25 1034 30.53 864 25.51 -3.7 25.4 40 -15.4 4.2
13:30 1034 30.53 863 25.48 -4.5 23.9 46 -14.4 6.1
13:35 1034 30.53 863 25.48 -5 23 46 -14.8 5.4
13:40 1034 30.53 863 25.48 -4.2 24.4 43 -15.1 4.9
13:45 1034 30.53 863 25.48 -4 24.8 40 -15.6 3.9
13:50 1034 30.53 863 25.48 -3.4 25.8 39 -15.6 4
13:55 1034 30.53 863 25.48 -3.4 25.8 40 -15.1 4.9
14:00 1034 30.53 863 25.48 -3.3 26.1 38 -15.5 4
14:05 1034 30.53 863 25.48 -3.4 25.9 39 -15.6 3.8
14:10 1034 30.53 863 25.48 -4 24.8 42 -15.1 4.8
14:15 1034 30.53 863 25.48 -4.1 24.6 42 -15.1 4.8
14:20 1034 30.53 863 25.48 -4 24.9 44 -14.6 5.8
14:25 1034 30.53 863 25.48 -3.5 25.6 43 -14.3 6.3
14:30 1034 30.53 863 25.48 -3.6 25.5 44 -14.1 6.5
14:35 1034 30.53 863 25.48 -4.6 23.7 48 -14.1 6.6
14:40 1034 30.53 863 25.48 -4.3 24.3 45 -14.6 5.6
14:45 1034 30.53 863 25.48 -4.3 24.3 45 -14.5 5.9
14:50 1034 30.53 863 25.48 -3.6 25.5 42 -14.8 5.3
14:55 1034 30.53 863 25.48 -3.8 25.2 43 -14.7 5.5
15:00 1034 30.53 863 25.48 -4 24.9 41 -15.3 4.4
15:05 1034 30.53 863 25.48 -4 24.9 39 -15.9 3.3
15:10 1034 30.53 863 25.48 -3.4 25.8 38 -15.8 3.6
15:15 1034 30.53 863 25.48 -3.3 26 37 -16 3.1
15:20 1034 30.53 863 25.48 -3.9 24.9 40 -15.5 4
15:25 1034 30.53 863 25.48 -4 24.7 38 -16.3 2.7
15:30 1034 30.53 863 25.48 -4.1 24.5 39 -16 3.1
15:35 1034 30.53 863 25.48 -4.4 24.1 40 -16.1 3.1
15:40 1034 30.53 863 25.48 -4.3 24.2 38 -16.6 2.1
15:45 1034 30.53 863 25.48 -4.1 24.6 38 -16.5 2.3
15:50 1034 30.53 863 25.48 -3.9 24.9 37 -16.6 2.1
15:55 1034 30.53 863 25.48 -3.8 25.1 37 -16.4 2.6
16:00 1034 30.53 863 25.48 -3.8 25.2 37 -16.6 2.2
16:05 1034 30.53 863 25.48 -3.8 25.2 36 -17 1.5
16:10 1034 30.53 863 25.48 -3.8 25.2 36 -17 1.5
16:15 1034 30.53 863 25.48 -3.5 25.8 35 -16.9 1.6
16:20 1034 30.53 863 25.48 -3.5 25.7 35 -17 1.4
16:25 1034 30.53 863 25.48 -3.5 25.7 35 -16.8 1.8
16:30 1034 30.53 863 25.48 -3.8 25.2 37 -16.5 2.3
16:35 1034 30.53 863 25.48 -3.9 25 37 -16.5 2.3
16:40 1034 30.53 863 25.48 -4 24.9 38 -16.4 2.5
16:45 1034 30.53 863 25.48 -4.2 24.4 38 -16.6 2.2
16:50 1034 30.53 863 25.48 -4.1 24.6 37 -16.7 2
16:55 1034 30.53 863 25.48 -4.1 24.7 37 -16.6 2.1
17:00 1034 30.53 863 25.48 -4.2 24.4 38 -16.6 2.2
17:05 1034 30.53 863 25.48 -4.4 24.2 39 -16.5 2.3
17:10 1033 30.5 863 25.48 -4.5 23.9 39 -16.5 2.3
17:15 1033 30.5 863 25.48 -4.8 23.4 40 -16.5 2.3
17:20 1033 30.5 863 25.48 -4.7 23.5 38 -17 1.5
17:25 1033 30.5 863 25.48 -4.7 23.6 39 -16.8 1.8
17:30 1033 30.5 863 25.48 -4.9 23.2 39 -16.7 1.9
17:35 1033 30.5 863 25.48 -5.1 22.9 40 -16.6 2.1
17:40 1033 30.5 863 25.48 -5.2 22.7 41 -16.5 2.3
17:45 1033 30.5 863 25.48 -6.3 20.6 47 -15.9 3.3
17:50 1033 30.5 863 25.48 -7.2 19.1 49 -16.3 2.7
17:55 1033 30.5 863 25.48 -7.4 18.6 49 -16.5 2.4
18:00 1033 30.5 862 25.45 -7.8 18 49 -16.6 2.1
18:05 1033 30.5 862 25.45 -7.7 18.1 49 -16.8 1.7
18:10 1033 30.5 862 25.45 -7.6 18.3 48 -16.8 1.8
18:15 1033 30.5 862 25.45 -7.8 18 48 -16.9 1.6
18:20 1033 30.5 862 25.45 -7.6 18.2 48 -17 1.5
18:25 1033 30.5 862 25.45 -7.7 18.1 52 -15.9 3.4
18:30 1033 30.5 862 25.45 -8 17.6 52 -16.3 2.7
18:35 1033 30.5 862 25.45 -8 17.6 52 -16.1 3
18:40 1033 30.5 862 25.45 -8.1 17.4 54 -15.9 3.4
18:45 1033 30.5 862 25.45 -8.4 16.9 54 -16.2 2.9
18:50 1033 30.5 862 25.45 -8.6 16.5 55 -16.2 2.9
18:55 1033 30.5 862 25.45 -8.9 15.9 55 -16.4 2.6
19:00 1033 30.5 862 25.45 -9.6 14.8 57 -16.6 2.2
19:05 1033 30.5 862 25.45 -9.7 14.5 57 -16.7 1.9
19:10 1033 30.5 862 25.45 -9.7 14.5 56 -16.9 1.6
19:15 1033 30.5 862 25.45 -9.5 15 57 -16.6 2.2
19:20 1033 30.5 862 25.45 -9.2 15.4 56 -16.6 2.2
19:25 1033 30.5 862 25.45 -9.3 15.3 55 -16.7 2
19:30 1033 30.5 862 25.45 -9.5 14.8 57 -16.5 2.2
19:35 1033 30.5 862 25.45 -9.6 14.8 56 -16.7 1.9
19:40 1033 30.5 862 25.45 -10 14.1 57 -16.9 1.6
19:45 1033 30.5 862 25.45 -10.3 13.6 59 -16.8 1.7
19:50 1033 30.5 862 25.45 -10.6 12.9 60 -16.9 1.6
19:55 1033 30.5 862 25.45 -10.7 12.7 61 -16.9 1.6
20:00 1033 30.5 862 25.45 -10.9 12.4 61 -17 1.4
20:05 1033 30.5 862 25.45 -10.8 12.5 61 -17.1 1.3
20:10 1033 30.5 862 25.45 -11.1 12.1 61 -17.1 1.1
20:15 1033 30.5 862 25.45 -11.3 11.7 62 -17.3 0.9
20:20 1033 30.5 862 25.45 -11.4 11.4 62 -17.3 0.9
20:25 1033 30.5 862 25.45 -11.4 11.5 62 -17.3 0.9
20:30 1033 30.5 862 25.45 -11 12.1 61 -17.1 1.3
20:35 1033 30.5 862 25.45 -10.9 12.3 61 -17 1.4
20:40 1033 30.5 862 25.45 -10.9 12.4 60 -17.2 1.1
20:45 1033 30.5 862 25.45 -11 12.2 60 -17.3 0.9
20:50 1033 30.5 862 25.45 -11.5 11.3 62 -17.3 0.9
20:55 1033 30.5 862 25.45 -11.8 10.9 63 -17.4 0.6
21:00 1033 30.5 862 25.45 -11.7 11 62 -17.5 0.5
21:05 1033 30.5 862 25.45 -11.8 10.7 62 -17.6 0.2
21:10 1033 30.5 862 25.45 -11.9 10.6 62 -17.7 0.1
21:15 1033 30.5 862 25.45 -11.9 10.5 62 -17.7 0.1
21:20 1033 30.5 862 25.45 -12 10.4 62 -17.8 -0
21:25 1033 30.5 862 25.45 -12 10.5 63 -17.7 0.1
21:30 1033 30.5 862 25.45 -11.9 10.5 63 -17.7 0.1
21:35 1033 30.5 862 25.45 -11.9 10.6 63 -17.7 0.2
21:40 1033 30.5 862 25.45 -11.9 10.5 62 -17.8 0
21:45 1033 30.5 862 25.45 -11.9 10.6 62 -17.8 -0
21:50 1033 30.5 862 25.45 -12 10.5 62 -17.8 -0
21:55 1033 30.5 862 25.45 -12 10.5 62 -17.9 -0.3
22:00 1033 30.5 862 25.45 -11.8 10.8 61 -17.9 -0.3
22:05 1033 30.5 862 25.45 -11.7 11 60 -17.9 -0.2
22:10 1033 30.5 862 25.45 -11.7 10.9 60 -18 -0.3
22:15 1033 30.5 862 25.45 -11.6 11.1 60 -18 -0.4
22:20 1033 30.5 862 25.45 -11.6 11.1 60 -17.9 -0.3
22:25 1033 30.5 862 25.45 -11.7 10.9 60 -18 -0.5
22:30 1033 30.5 862 25.45 -11.7 11 60 -17.9 -0.3
22:35 1033 30.5 862 25.45 -11.6 11.1 60 -17.9 -0.2
22:40 1033 30.5 862 25.45 -11.6 11.2 60 -17.9 -0.1
22:45 1033 30.5 862 25.45 -11.5 11.3 60 -17.9 -0.2
22:50 1033 30.5 862 25.45 -11.3 11.7 60 -17.7 0.1
22:55 1033 30.5 862 25.45 -11.5 11.3 61 -17.7 0.2
23:00 1033 30.5 862 25.45 -11.7 10.9 61 -17.8 0
23:05 1033 30.5 862 25.45 -11.7 11 61 -17.7 0.1
23:10 1033 30.5 862 25.45 -11.7 11 60 -17.9 -0.1
23:15 1033 30.5 862 25.45 -12 10.5 62 -17.8 -0.1
23:20 1033 30.5 862 25.45 -12.1 10.3 63 -17.7 0.1
23:25 1033 30.5 862 25.45 -12.3 10 63 -17.9 -0.1
23:30 1033 30.5 862 25.45 -12.2 10 63 -17.9 -0.2
23:35 1033 30.5 862 25.45 -12.1 10.2 63 -17.9 -0.2
23:40 1033 30.5 862 25.45 -12.1 10.2 62 -18 -0.3
23:45 1033 30.5 862 25.45 -12.3 9.8 63 -18.1 -0.6
23:50 1033 30.5 862 25.45 -12.3 9.9 63 -18 -0.4
23:55 1033 30.5 862 25.45 -12.3 9.9 63 -18 -0.3
24:00 1033 30.5 862 25.45 -12.4 9.7 63 -18 -0.5